createdAt,value
2023-03-06T00:00:29.890Z,73.57
2023-03-06T00:02:56.719Z,74.21
2023-03-06T00:05:23.217Z,74.56
2023-03-06T00:07:49.701Z,74.90
2023-03-06T00:10:24.154Z,75.36
2023-03-06T00:12:59.014Z,75.01
2023-03-06T00:15:26.487Z,75.29
2023-03-06T00:17:53.543Z,74.73
2023-03-06T00:20:23.589Z,74.42
2023-03-06T00:22:52.587Z,75.05
2023-03-06T00:25:21.100Z,75.47
2023-03-06T00:27:48.328Z,75.10
2023-03-06T00:30:17.729Z,75.00
2023-03-06T00:32:44.295Z,75.25
2023-03-06T00:35:12.041Z,75.54
2023-03-06T00:37:38.875Z,75.55
2023-03-06T00:40:07.408Z,76.02
2023-03-06T00:42:33.810Z,76.56
2023-03-06T00:45:00.166Z,76.70
2023-03-06T00:47:26.585Z,77.41
2023-03-06T00:49:52.939Z,76.95
2023-03-06T00:52:19.501Z,76.78
2023-03-06T00:54:45.871Z,76.70
2023-03-06T00:57:12.153Z,77.35
2023-03-06T00:59:38.474Z,77.79
2023-03-06T01:02:05.110Z,77.80
2023-03-06T01:04:31.788Z,78.08
2023-03-06T01:06:58.233Z,78.04
2023-03-06T01:09:24.773Z,78.31
2023-03-06T01:11:51.146Z,78.64
2023-03-06T01:14:19.281Z,78.95
2023-03-06T01:16:47.038Z,79.40
2023-03-06T01:19:13.770Z,79.40
2023-03-06T01:21:40.113Z,79.89
2023-03-06T01:24:06.625Z,79.94
2023-03-06T01:26:33.450Z,80.65
2023-03-06T01:29:00.222Z,80.86
2023-03-06T01:31:26.702Z,81.18
2023-03-06T01:33:53.132Z,81.53
2023-03-06T01:36:19.566Z,81.94
2023-03-06T01:38:46.066Z,82.59
2023-03-06T01:41:15.653Z,82.81
2023-03-06T01:43:45.260Z,83.14
2023-03-06T01:46:44.808Z,83.49
2023-03-06T01:49:19.826Z,83.90
2023-03-06T01:51:51.885Z,83.90
2023-03-06T01:54:26.532Z,84.50
2023-03-06T01:56:58.895Z,84.59
2023-03-06T01:59:26.930Z,85.00
2023-03-06T02:01:54.735Z,85.01
2023-03-06T02:04:21.164Z,85.35
2023-03-06T02:06:48.065Z,84.56
2023-03-06T02:09:14.972Z,84.56
2023-03-06T02:11:43.942Z,84.62
2023-03-06T02:14:17.930Z,84.42
2023-03-06T02:16:44.525Z,84.53
2023-03-06T02:19:33.975Z,84.42
2023-03-06T02:22:00.547Z,85.05
2023-03-06T02:24:32.277Z,84.80
2023-03-06T02:27:00.733Z,84.64
2023-03-06T02:29:29.304Z,85.43
2023-03-06T02:31:56.489Z,85.11
2023-03-06T02:34:22.752Z,85.55
2023-03-06T02:36:52.056Z,85.47
2023-03-06T02:39:21.997Z,85.88
2023-03-06T02:41:48.534Z,85.51
2023-03-06T02:44:14.942Z,85.60
2023-03-06T02:46:41.273Z,85.67
2023-03-06T02:49:07.647Z,85.70
2023-03-06T02:51:34.204Z,85.63
2023-03-06T02:54:00.544Z,85.89
2023-03-06T02:56:27.056Z,85.72
2023-03-06T02:58:53.668Z,85.38
2023-03-06T03:01:20.046Z,85.35
2023-03-06T03:03:46.413Z,85.04
2023-03-06T03:06:12.709Z,84.99
2023-03-06T03:08:39.090Z,85.17
2023-03-06T03:11:05.828Z,85.24
2023-03-06T03:13:32.787Z,85.34
2023-03-06T03:16:03.175Z,85.47
2023-03-06T03:18:29.735Z,85.33
2023-03-06T03:20:56.312Z,84.68
2023-03-06T03:23:23.175Z,84.97
2023-03-06T03:25:49.818Z,85.44
2023-03-06T03:28:16.614Z,85.52
2023-03-06T03:30:43.597Z,85.27
2023-03-06T03:33:10.307Z,85.11
2023-03-06T03:35:37.153Z,85.60
2023-03-06T03:38:03.559Z,85.88
2023-03-06T03:40:29.882Z,85.33
2023-03-06T03:42:56.169Z,85.71
2023-03-06T03:45:22.462Z,85.96
2023-03-06T03:47:48.829Z,86.87
2023-03-06T03:50:15.200Z,87.02
2023-03-06T03:52:41.510Z,87.26
2023-03-06T03:55:08.357Z,87.25
2023-03-06T03:57:34.645Z,86.70
2023-03-06T04:00:00.912Z,86.54
2023-03-06T04:02:27.270Z,86.45
2023-03-06T04:04:53.790Z,86.49
2023-03-06T04:07:20.187Z,86.23
2023-03-06T04:09:47.302Z,85.87
2023-03-06T04:12:13.806Z,86.01
2023-03-06T04:14:40.096Z,85.50
2023-03-06T04:17:06.468Z,85.29
2023-03-06T04:19:32.812Z,84.93
2023-03-06T04:21:59.156Z,85.23
2023-03-06T04:24:25.516Z,85.12
2023-03-06T04:26:51.882Z,85.46
2023-03-06T04:29:18.339Z,85.69
2023-03-06T04:31:44.777Z,85.63
2023-03-06T04:34:11.118Z,85.48
2023-03-06T04:36:38.312Z,85.55
2023-03-06T04:39:04.852Z,85.37
2023-03-06T04:41:31.209Z,85.12
2023-03-06T04:43:57.554Z,84.96
2023-03-06T04:46:23.864Z,85.18
2023-03-06T04:48:50.149Z,85.15
2023-03-06T04:51:16.690Z,85.14
2023-03-06T04:53:43.146Z,85.33
2023-03-06T04:56:09.728Z,85.47
2023-03-06T04:58:36.333Z,85.52
2023-03-06T05:01:03.035Z,85.56
2023-03-06T05:03:29.517Z,85.62
2023-03-06T05:05:55.924Z,85.51
2023-03-06T05:08:23.600Z,85.55
2023-03-06T05:10:58.455Z,85.82
2023-03-06T05:13:25.671Z,85.47
2023-03-06T05:15:52.035Z,85.31
2023-03-06T05:18:19.073Z,84.80
2023-03-06T05:20:45.788Z,84.99
2023-03-06T05:23:12.497Z,85.07
2023-03-06T05:25:40.423Z,84.86
2023-03-06T05:28:07.811Z,84.50
2023-03-06T05:30:34.703Z,84.83
2023-03-06T05:33:01.085Z,84.32
2023-03-06T05:35:28.090Z,84.28
2023-03-06T05:37:54.674Z,84.19
2023-03-06T05:40:21.066Z,84.72
2023-03-06T05:42:47.420Z,84.40
2023-03-06T05:45:13.853Z,84.76
2023-03-06T05:47:40.226Z,85.06
2023-03-06T05:50:08.226Z,84.94
2023-03-06T05:52:34.558Z,85.05
2023-03-06T05:55:00.971Z,84.96
2023-03-06T05:57:27.334Z,84.90
2023-03-06T05:59:53.680Z,84.74
2023-03-06T06:02:20.061Z,84.90
2023-03-06T06:04:46.490Z,84.63
2023-03-06T06:07:14.934Z,85.47
2023-03-06T06:09:43.307Z,85.33
2023-03-06T06:12:09.748Z,84.82
2023-03-06T06:14:36.084Z,85.38
2023-03-06T06:17:02.483Z,84.77
2023-03-06T06:19:30.119Z,84.92
2023-03-06T06:21:56.894Z,85.71
2023-03-06T06:24:25.645Z,85.91
2023-03-06T06:26:53.706Z,86.09
2023-03-06T06:29:20.790Z,85.72
2023-03-06T06:31:47.732Z,85.90
2023-03-06T06:34:14.254Z,86.30
2023-03-06T06:36:41.317Z,85.65
2023-03-06T06:39:09.086Z,85.99
2023-03-06T06:41:53.526Z,85.51
2023-03-06T06:44:21.897Z,85.23
2023-03-06T06:49:36.568Z,84.39
2023-03-06T06:52:03.455Z,83.50
2023-03-06T06:54:29.776Z,83.31
2023-03-06T06:56:56.109Z,82.89
2023-03-06T06:59:25.532Z,82.49
2023-03-06T07:01:52.640Z,81.63
2023-03-06T07:04:19.611Z,81.40
2023-03-06T07:06:46.037Z,81.31
2023-03-06T07:09:13.125Z,80.91
2023-03-06T07:11:40.067Z,80.27
2023-03-06T07:14:06.386Z,79.69
2023-03-06T07:16:32.806Z,79.31
2023-03-06T07:18:59.155Z,78.96
2023-03-06T07:21:25.447Z,78.61
2023-03-06T07:23:51.817Z,78.55
2023-03-06T07:26:20.633Z,79.21
2023-03-06T07:28:52.613Z,80.18
2023-03-06T07:31:25.128Z,80.48
2023-03-06T07:33:52.979Z,80.00
2023-03-06T07:36:20.400Z,80.19
2023-03-06T07:38:46.784Z,81.02
2023-03-06T07:41:16.229Z,81.22
2023-03-06T07:43:44.174Z,81.19
2023-03-06T07:46:11.951Z,81.57
2023-03-06T07:48:38.961Z,80.42
2023-03-06T07:51:08.228Z,80.97
2023-03-06T07:53:35.509Z,80.30
2023-03-06T07:56:08.430Z,79.33
2023-03-06T07:58:39.471Z,78.86
2023-03-06T08:01:09.580Z,78.22
2023-03-06T08:03:36.020Z,78.02
2023-03-06T08:06:07.572Z,77.63
2023-03-06T08:08:35.456Z,76.52
2023-03-06T08:11:01.986Z,76.06
2023-03-06T08:13:28.437Z,77.05
2023-03-06T08:15:56.158Z,76.93
2023-03-06T08:18:22.584Z,75.45
2023-03-06T08:20:48.906Z,74.73
2023-03-06T08:23:15.260Z,73.49
2023-03-06T08:25:41.625Z,72.53
2023-03-06T08:28:07.995Z,70.65
2023-03-06T08:30:34.303Z,71.29
2023-03-06T08:33:01.234Z,69.66
2023-03-06T08:35:27.530Z,70.44
2023-03-06T08:37:53.820Z,70.33
2023-03-06T08:40:20.167Z,69.56
2023-03-06T08:42:48.000Z,71.51
2023-03-06T08:45:14.379Z,71.28
2023-03-06T08:47:40.973Z,71.56
2023-03-06T08:50:07.612Z,70.79
2023-03-06T08:52:33.938Z,71.86
2023-03-06T08:55:03.347Z,71.64
2023-03-06T08:57:30.454Z,70.48
2023-03-06T08:59:56.915Z,69.44
2023-03-06T09:02:23.341Z,68.08
2023-03-06T09:04:49.789Z,68.74
2023-03-06T09:07:16.189Z,68.33
2023-03-06T09:09:42.606Z,67.43
2023-03-06T09:12:08.954Z,67.29
2023-03-06T09:14:35.285Z,68.03
2023-03-06T09:17:01.651Z,69.03
2023-03-06T09:19:27.942Z,68.77
2023-03-06T09:21:54.407Z,68.19
2023-03-06T09:24:20.717Z,68.24
2023-03-06T09:26:48.369Z,67.17
2023-03-06T09:29:17.376Z,66.48
2023-03-06T09:31:44.865Z,66.49
2023-03-06T09:34:11.265Z,65.41
2023-03-06T09:36:54.943Z,65.17
2023-03-06T09:39:22.725Z,65.06
2023-03-06T09:41:50.748Z,65.11
2023-03-06T09:44:21.352Z,64.22
2023-03-06T09:47:07.026Z,62.86
2023-03-06T09:49:51.943Z,63.43
2023-03-06T09:52:29.914Z,63.47
2023-03-06T09:55:02.889Z,63.32
2023-03-06T09:57:35.180Z,63.29
2023-03-06T10:00:07.111Z,61.78
2023-03-06T10:02:52.103Z,61.30
2023-03-06T10:05:23.031Z,61.00
2023-03-06T10:07:56.824Z,61.31
2023-03-06T10:10:26.861Z,60.92
2023-03-06T10:13:06.299Z,61.09
2023-03-06T10:15:35.955Z,60.71
2023-03-06T10:18:03.373Z,59.94
2023-03-06T10:20:51.906Z,61.35
2023-03-06T10:23:42.079Z,59.39
2023-03-06T10:26:15.563Z,58.77
2023-03-06T10:28:51.566Z,58.82
2023-03-06T10:31:23.334Z,56.41
2023-03-06T10:33:53.977Z,55.66
2023-03-06T10:36:23.439Z,54.29
2023-03-06T10:38:49.792Z,54.06
2023-03-06T10:41:30.078Z,53.53
2023-03-06T10:44:05.388Z,53.98
2023-03-06T10:46:41.694Z,53.81
2023-03-06T10:49:26.111Z,54.96
2023-03-06T10:51:58.294Z,54.73
2023-03-06T10:54:24.763Z,53.41
2023-03-06T10:56:51.173Z,53.04
2023-03-06T10:59:28.072Z,51.79
2023-03-06T11:01:57.180Z,53.06
2023-03-06T11:04:33.831Z,51.75
2023-03-06T11:07:15.285Z,51.32
2023-03-06T11:09:58.667Z,51.33
2023-03-06T11:12:34.472Z,51.96
2023-03-06T11:15:07.166Z,50.80
2023-03-06T11:17:47.457Z,49.68
2023-03-06T11:20:51.443Z,49.03
2023-03-06T11:23:22.832Z,49.22
2023-03-06T11:26:16.906Z,49.83
2023-03-06T11:29:06.641Z,49.01
2023-03-06T11:31:37.640Z,47.93
2023-03-06T11:34:14.190Z,49.42
2023-03-06T11:37:05.532Z,50.97
2023-03-06T11:39:39.342Z,53.30
2023-03-06T11:42:28.076Z,53.81
2023-03-06T11:45:10.076Z,52.14
2023-03-06T11:47:40.689Z,52.00
2023-03-06T11:50:25.760Z,52.17
2023-03-06T11:53:01.565Z,53.53
2023-03-06T11:55:39.265Z,54.59
2023-03-06T11:58:36.688Z,54.45
2023-03-06T12:01:22.376Z,55.15
2023-03-06T12:04:26.185Z,53.04
2023-03-06T12:07:20.822Z,53.39
2023-03-06T12:09:57.023Z,53.71
2023-03-06T12:12:41.113Z,52.77
2023-03-06T12:15:53.506Z,50.32
2023-03-06T12:18:39.413Z,51.75
2023-03-06T12:21:15.014Z,51.69
2023-03-06T12:23:59.543Z,50.24
2023-03-06T12:27:00.046Z,50.29
2023-03-06T12:29:45.214Z,51.50
2023-03-06T12:32:29.935Z,51.41
2023-03-06T12:35:18.096Z,52.20
2023-03-06T12:37:50.727Z,50.08
2023-03-06T12:40:36.032Z,49.15
2023-03-06T12:43:25.098Z,48.70
2023-03-06T12:45:58.370Z,47.66
2023-03-06T12:48:29.364Z,47.97
2023-03-06T12:50:56.286Z,46.27
2023-03-06T12:53:29.532Z,47.09
2023-03-06T12:55:58.270Z,46.66
2023-03-06T12:58:30.740Z,46.68
2023-03-06T13:01:34.655Z,46.98
2023-03-06T13:04:31.354Z,45.53
2023-03-06T13:07:22.829Z,45.56
2023-03-06T13:10:02.133Z,45.16
2023-03-06T13:12:31.421Z,44.18
2023-03-06T13:15:00.487Z,43.62
2023-03-06T13:17:33.281Z,43.42
2023-03-06T13:20:14.621Z,43.94
2023-03-06T13:22:42.487Z,43.63
2023-03-06T13:25:21.047Z,44.02
2023-03-06T13:27:53.393Z,44.70
2023-03-06T13:30:41.909Z,43.84
2023-03-06T13:33:46.601Z,43.98
2023-03-06T13:36:32.546Z,44.94
2023-03-06T13:39:12.137Z,45.99
2023-03-06T13:41:42.944Z,44.88
2023-03-06T13:44:40.549Z,44.96
2023-03-06T13:47:18.952Z,45.25
2023-03-06T13:49:47.435Z,45.73
2023-03-06T13:53:01.653Z,45.19
2023-03-06T13:55:44.079Z,45.77
2023-03-06T13:58:41.362Z,44.51
2023-03-06T14:01:29.797Z,45.65
2023-03-06T14:04:14.383Z,44.99
2023-03-06T14:06:49.546Z,44.90
2023-03-06T14:09:20.461Z,44.77
2023-03-06T14:11:53.085Z,45.86
2023-03-06T14:14:30.529Z,46.06
2023-03-06T14:16:58.298Z,45.96
2023-03-06T14:19:25.475Z,46.49
2023-03-06T14:21:57.383Z,47.90
2023-03-06T14:24:34.328Z,48.53
2023-03-06T14:27:00.840Z,48.72
2023-03-06T14:29:29.908Z,49.28
2023-03-06T14:31:58.809Z,48.91
2023-03-06T14:34:45.321Z,46.69
2023-03-06T14:37:25.044Z,46.56
2023-03-06T14:39:52.015Z,46.47
2023-03-06T14:42:24.703Z,45.71
2023-03-06T14:45:15.881Z,46.08
2023-03-06T14:47:43.640Z,47.14
2023-03-06T14:50:29.267Z,46.19
2023-03-06T14:53:03.982Z,46.15
2023-03-06T14:55:34.777Z,46.58
2023-03-06T14:58:07.153Z,46.58
2023-03-06T15:00:38.463Z,46.77
2023-03-06T15:03:12.492Z,46.78
2023-03-06T15:05:42.799Z,47.55
2023-03-06T15:08:09.374Z,47.47
2023-03-06T15:10:37.221Z,47.45
2023-03-06T15:13:19.905Z,47.19
2023-03-06T15:15:56.760Z,47.91
2023-03-06T15:18:35.421Z,48.67
2023-03-06T15:21:22.580Z,48.98
2023-03-06T15:23:51.517Z,48.57
2023-03-06T15:26:31.133Z,49.48
2023-03-06T15:29:09.046Z,49.33
2023-03-06T15:31:45.917Z,49.08
2023-03-06T15:34:12.202Z,49.94
2023-03-06T15:36:58.248Z,49.68
2023-03-06T15:39:28.691Z,50.05
2023-03-06T15:42:00.444Z,50.40
2023-03-06T15:44:28.952Z,49.96
2023-03-06T15:47:06.625Z,50.49
2023-03-06T15:49:38.084Z,50.99
2023-03-06T15:52:05.931Z,51.01
2023-03-06T15:54:33.089Z,51.90
2023-03-06T15:57:00.310Z,52.17
2023-03-06T15:59:32.814Z,52.03
2023-03-06T16:02:03.691Z,51.66
2023-03-06T16:04:30.338Z,51.91
2023-03-06T16:06:56.688Z,51.67
2023-03-06T16:09:23.630Z,51.54
2023-03-06T16:11:49.904Z,51.89
2023-03-06T16:14:23.384Z,53.15
2023-03-06T16:16:51.156Z,53.04
2023-03-06T16:19:28.193Z,52.81
2023-03-06T16:21:55.897Z,53.51
2023-03-06T16:24:22.568Z,53.76
2023-03-06T16:26:51.079Z,54.08
2023-03-06T16:29:19.520Z,54.88
2023-03-06T16:31:46.288Z,54.71
2023-03-06T16:34:13.078Z,54.39
2023-03-06T16:36:39.482Z,55.14
2023-03-06T16:39:05.820Z,54.62
2023-03-06T16:41:32.210Z,54.80
2023-03-06T16:43:58.618Z,55.23
2023-03-06T16:46:25.367Z,55.81
2023-03-06T16:48:52.691Z,55.36
2023-03-06T16:51:22.082Z,55.95
2023-03-06T16:53:50.779Z,56.22
2023-03-06T16:56:19.051Z,55.99
2023-03-06T16:58:45.435Z,56.75
2023-03-06T17:01:16.117Z,56.83
2023-03-06T17:03:42.711Z,57.10
2023-03-06T17:06:17.737Z,56.94
2023-03-06T17:08:45.262Z,56.14
2023-03-06T17:11:12.868Z,56.46
2023-03-06T17:13:39.334Z,56.57
2023-03-06T17:16:06.901Z,56.52
2023-03-06T17:18:33.331Z,57.40
2023-03-06T17:21:01.816Z,57.99
2023-03-06T17:23:31.694Z,57.42
2023-03-06T17:26:10.033Z,58.25
2023-03-06T17:28:37.176Z,59.26
2023-03-06T17:31:11.252Z,59.67
2023-03-06T17:33:37.540Z,59.91
2023-03-06T17:36:04.133Z,60.37
2023-03-06T17:38:30.453Z,61.32
2023-03-06T17:41:02.296Z,61.14
2023-03-06T17:43:28.610Z,60.61
2023-03-06T17:45:54.956Z,60.97
2023-03-06T17:48:21.291Z,61.85
2023-03-06T17:50:54.997Z,62.33
2023-03-06T17:53:22.160Z,62.90
2023-03-06T17:55:48.526Z,62.59
2023-03-06T17:58:14.913Z,63.23
2023-03-06T18:00:41.473Z,63.87
2023-03-06T18:03:09.195Z,64.05
2023-03-06T18:05:36.683Z,64.36
2023-03-06T18:08:03.428Z,65.12
2023-03-06T18:10:29.789Z,65.06
2023-03-06T18:12:56.618Z,65.18
2023-03-06T18:15:23.179Z,65.00
2023-03-06T18:17:49.578Z,65.41
2023-03-06T18:20:16.135Z,65.79
2023-03-06T18:22:42.452Z,65.63
2023-03-06T18:25:09.010Z,65.77
2023-03-06T18:27:35.865Z,66.23
2023-03-06T18:30:02.204Z,67.27
2023-03-06T18:32:28.523Z,67.34
2023-03-06T18:34:55.632Z,67.50
2023-03-06T18:37:25.837Z,68.04
2023-03-06T18:39:52.264Z,68.27
2023-03-06T18:42:18.802Z,68.99
2023-03-06T18:44:47.697Z,68.96
2023-03-06T18:47:15.336Z,69.58
2023-03-06T18:49:44.117Z,70.04
2023-03-06T18:52:11.104Z,70.28
2023-03-06T18:54:37.518Z,71.59
2023-03-06T18:57:03.958Z,72.70
2023-03-06T18:59:30.303Z,73.17
2023-03-06T19:01:58.444Z,73.45
2023-03-06T19:04:25.912Z,73.57
2023-03-06T19:06:52.618Z,73.53
2023-03-06T19:09:19.208Z,73.55
2023-03-06T19:11:46.798Z,73.12
2023-03-06T19:14:14.297Z,73.10
2023-03-06T19:16:41.132Z,72.65
2023-03-06T19:19:07.681Z,72.98
2023-03-06T19:21:34.004Z,73.65
2023-03-06T19:24:02.109Z,72.32
2023-03-06T19:26:28.572Z,72.95
2023-03-06T19:28:54.989Z,74.15
2023-03-06T19:31:26.951Z,73.61
2023-03-06T19:33:54.748Z,73.19
2023-03-06T19:36:26.456Z,74.10
2023-03-06T19:38:54.825Z,74.22
2023-03-06T19:41:21.454Z,74.90
2023-03-06T19:43:52.239Z,74.93
2023-03-06T19:46:19.015Z,75.31
2023-03-06T19:48:46.122Z,76.43
2023-03-06T19:51:12.750Z,77.11
2023-03-06T19:53:39.905Z,77.53
2023-03-06T19:56:07.906Z,77.40
2023-03-06T19:58:34.544Z,77.62
2023-03-06T20:01:06.103Z,78.51
2023-03-06T20:03:32.584Z,78.41
2023-03-06T20:05:58.965Z,78.65
2023-03-06T20:08:25.346Z,78.89
2023-03-06T20:10:51.637Z,79.40
2023-03-06T20:13:17.969Z,79.67
2023-03-06T20:15:44.412Z,80.02
2023-03-06T20:18:10.998Z,79.52
2023-03-06T20:20:39.057Z,79.20
2023-03-06T20:23:06.147Z,79.23
2023-03-06T20:25:35.670Z,79.34
2023-03-06T20:28:04.482Z,78.99
2023-03-06T20:30:37.828Z,79.11
2023-03-06T20:33:04.563Z,79.43
2023-03-06T20:35:30.864Z,80.10
2023-03-06T20:37:57.186Z,80.15
2023-03-06T20:40:23.518Z,79.87
2023-03-06T20:42:50.001Z,80.35
2023-03-06T20:45:16.416Z,80.41
2023-03-06T20:47:50.698Z,80.56
2023-03-06T20:50:17.269Z,80.10
2023-03-06T20:52:43.608Z,80.52
2023-03-06T20:55:10.262Z,80.65
2023-03-06T20:57:36.618Z,81.12
2023-03-06T21:00:04.865Z,81.58
2023-03-06T21:02:31.276Z,82.12
2023-03-06T21:04:59.876Z,82.19
2023-03-06T21:07:26.553Z,82.03
2023-03-06T21:09:52.947Z,82.01
2023-03-06T21:12:19.296Z,81.98
2023-03-06T21:14:45.586Z,81.41
2023-03-06T21:17:13.801Z,81.55
2023-03-06T21:19:41.406Z,81.39
2023-03-06T21:22:07.963Z,81.42
2023-03-06T21:24:35.240Z,81.97
2023-03-06T21:27:01.650Z,82.18
2023-03-06T21:29:27.980Z,82.76
2023-03-06T21:31:54.333Z,83.07
2023-03-06T21:34:20.682Z,83.35
2023-03-06T21:36:47.143Z,82.95
2023-03-06T21:39:13.856Z,83.22
2023-03-06T21:41:40.812Z,83.53
2023-03-06T21:44:07.627Z,84.16
2023-03-06T21:46:34.768Z,84.64
2023-03-06T21:49:04.372Z,83.83
2023-03-06T21:51:31.209Z,83.95
2023-03-06T21:53:58.812Z,84.18
2023-03-06T21:56:28.303Z,83.84
2023-03-06T21:58:55.492Z,83.85
2023-03-06T22:01:24.683Z,83.92
2023-03-06T22:03:51.430Z,83.59
2023-03-06T22:06:19.907Z,83.64
2023-03-06T22:08:46.480Z,83.55
2023-03-06T22:11:18.708Z,83.35
2023-03-06T22:13:45.942Z,82.55
2023-03-06T22:16:18.354Z,81.59
2023-03-06T22:18:46.194Z,81.13
2023-03-06T22:21:14.882Z,81.06
2023-03-06T22:23:41.489Z,81.08
2023-03-06T22:26:11.131Z,80.99
2023-03-06T22:28:37.531Z,80.96
2023-03-06T22:31:07.808Z,80.89
2023-03-06T22:33:34.329Z,80.72
2023-03-06T22:36:07.450Z,80.53
2023-03-06T22:38:35.742Z,81.05
2023-03-06T22:41:02.132Z,80.21
2023-03-06T22:43:28.456Z,80.51
2023-03-06T22:45:54.877Z,80.51
2023-03-06T22:48:21.476Z,80.62
2023-03-06T22:50:47.830Z,80.48
2023-03-06T22:53:14.225Z,80.52
2023-03-06T22:55:40.538Z,80.82
2023-03-06T22:58:06.929Z,81.05
2023-03-06T23:00:33.296Z,81.12
2023-03-06T23:02:59.594Z,81.26
2023-03-06T23:05:27.905Z,80.74
2023-03-06T23:07:55.672Z,81.08
2023-03-06T23:10:21.992Z,80.91
2023-03-06T23:12:48.318Z,80.84
2023-03-06T23:15:14.723Z,80.69
2023-03-06T23:17:41.009Z,80.51
2023-03-06T23:20:09.955Z,79.83
2023-03-06T23:22:36.269Z,79.87
2023-03-06T23:25:02.613Z,80.46
2023-03-06T23:27:29.299Z,80.47
2023-03-06T23:29:58.761Z,80.07
2023-03-06T23:32:25.281Z,79.72
2023-03-06T23:34:51.680Z,80.24
2023-03-06T23:37:18.015Z,80.50
2023-03-06T23:39:44.345Z,79.89
2023-03-06T23:42:10.985Z,79.90
2023-03-06T23:44:37.356Z,79.79
2023-03-06T23:47:03.729Z,79.84
2023-03-06T23:49:30.058Z,79.78
2023-03-06T23:51:56.362Z,80.38
2023-03-06T23:54:22.660Z,80.18
2023-03-06T23:56:48.987Z,80.38
2023-03-06T23:59:15.336Z,79.53
